createdAt,value
2019-01-10T00:00:22.297Z,55.80
2019-01-10T00:02:50.710Z,55.70
2019-01-10T00:05:19.366Z,55.70
2019-01-10T00:07:49.168Z,55.60
2019-01-10T00:10:18.315Z,55.60
2019-01-10T00:12:46.717Z,55.60
2019-01-10T00:15:19.728Z,55.80
2019-01-10T00:17:50.074Z,55.60
2019-01-10T00:20:18.641Z,55.60
2019-01-10T00:22:47.478Z,55.50
2019-01-10T00:25:15.880Z,55.50
2019-01-10T00:27:44.370Z,55.50
2019-01-10T00:30:19.015Z,55.50
2019-01-10T00:32:47.871Z,55.50
2019-01-10T00:35:16.276Z,55.40
2019-01-10T00:37:45.288Z,55.40
2019-01-10T00:40:15.895Z,55.30
2019-01-10T00:42:49.504Z,55.30
2019-01-10T00:45:20.164Z,55.30
2019-01-10T00:47:48.584Z,55.90
2019-01-10T00:50:19.342Z,55.30
2019-01-10T00:52:47.936Z,55.30
2019-01-10T00:55:16.514Z,55.30
2019-01-10T00:57:44.941Z,55.20
2019-01-10T01:00:25.984Z,55.20
2019-01-10T01:02:54.541Z,55.20
2019-01-10T01:05:23.274Z,55.20
2019-01-10T01:07:52.013Z,55.20
2019-01-10T01:10:22.561Z,55.20
2019-01-10T01:12:58.301Z,55.20
2019-01-10T01:15:22.056Z,55.10
2019-01-10T01:17:50.563Z,55.10
2019-01-10T01:20:21.255Z,55.10
2019-01-10T01:22:50.404Z,55.10
2019-01-10T01:25:18.816Z,55.10
2019-01-10T01:27:47.405Z,55.10
2019-01-10T01:30:18.616Z,55.00
2019-01-10T01:32:47.093Z,55.00
2019-01-10T01:35:16.129Z,55.10
2019-01-10T01:37:44.883Z,55.00
2019-01-10T01:40:15.751Z,55.00
2019-01-10T01:42:44.394Z,55.00
2019-01-10T01:45:15.821Z,55.00
2019-01-10T01:47:44.653Z,54.90
2019-01-10T01:50:19.117Z,54.90
2019-01-10T01:52:47.530Z,54.90
2019-01-10T01:55:16.011Z,54.90
2019-01-10T01:57:44.616Z,54.90
2019-01-10T02:00:20.845Z,54.90
2019-01-10T02:02:49.509Z,54.90
2019-01-10T02:05:18.095Z,54.80
2019-01-10T02:07:46.605Z,54.80
2019-01-10T02:10:17.973Z,54.80
2019-01-10T02:12:46.453Z,54.80
2019-01-10T02:15:15.604Z,54.80
2019-01-10T02:17:48.884Z,54.80
2019-01-10T02:20:14.548Z,54.70
2019-01-10T02:22:43.203Z,54.80
2019-01-10T02:25:16.829Z,54.80
2019-01-10T02:27:45.232Z,54.70
2019-01-10T02:30:21.699Z,54.70
2019-01-10T02:32:50.138Z,54.70
2019-01-10T02:35:18.863Z,54.20
2019-01-10T02:37:47.633Z,54.70
2019-01-10T02:40:16.177Z,55.00
2019-01-10T02:42:44.594Z,54.60
2019-01-10T02:45:15.973Z,54.60
2019-01-10T02:47:44.411Z,54.60
2019-01-10T02:50:21.593Z,54.60
2019-01-10T02:52:50.085Z,54.60
2019-01-10T02:55:18.572Z,54.60
2019-01-10T02:57:47.109Z,54.60
2019-01-10T03:00:18.520Z,55.20
2019-01-10T03:02:47.379Z,54.60
2019-01-10T03:05:16.629Z,54.50
2019-01-10T03:07:45.050Z,54.50
2019-01-10T03:10:18.789Z,54.50
2019-01-10T03:12:47.707Z,54.50
2019-01-10T03:15:16.193Z,54.50
2019-01-10T03:17:44.601Z,54.50
2019-01-10T03:20:17.446Z,54.50
2019-01-10T03:22:45.917Z,54.50
2019-01-10T03:25:14.391Z,54.50
2019-01-10T03:27:43.187Z,54.40
2019-01-10T03:30:19.159Z,54.40
2019-01-10T03:32:47.731Z,54.50
2019-01-10T03:35:16.379Z,54.40
2019-01-10T03:37:44.969Z,54.40
2019-01-10T03:40:16.433Z,54.40
2019-01-10T03:42:44.841Z,54.40
2019-01-10T03:45:15.589Z,54.40
2019-01-10T03:47:44.565Z,54.40
2019-01-10T03:50:15.517Z,54.30
2019-01-10T03:52:45.456Z,54.40
2019-01-10T03:55:14.547Z,54.40
2019-01-10T03:57:43.196Z,54.30
2019-01-10T04:00:17.071Z,54.30
2019-01-10T04:02:46.470Z,54.30
2019-01-10T04:05:15.386Z,54.30
2019-01-10T04:07:43.955Z,54.30
2019-01-10T04:10:14.547Z,54.30
2019-01-10T04:12:42.971Z,54.30
2019-01-10T04:15:12.918Z,54.30
2019-01-10T04:17:41.598Z,54.30
2019-01-10T04:20:12.859Z,54.20
2019-01-10T04:22:41.269Z,54.20
2019-01-10T04:25:11.140Z,54.20
2019-01-10T04:27:39.551Z,54.20
2019-01-10T04:30:17.061Z,54.20
2019-01-10T04:32:45.541Z,54.10
2019-01-10T04:35:14.280Z,54.20
2019-01-10T04:37:42.969Z,54.20
2019-01-10T04:40:14.317Z,54.20
2019-01-10T04:42:42.726Z,54.20
2019-01-10T04:45:11.815Z,54.20
2019-01-10T04:47:40.228Z,54.20
2019-01-10T04:50:13.566Z,54.10
2019-01-10T04:52:42.261Z,54.20
2019-01-10T04:55:12.206Z,54.00
2019-01-10T04:57:40.761Z,54.20
2019-01-10T05:00:23.913Z,54.20
2019-01-10T05:02:52.333Z,54.20
2019-01-10T05:05:20.741Z,54.10
2019-01-10T05:07:49.233Z,54.30
2019-01-10T05:10:17.643Z,54.30
2019-01-10T05:12:46.069Z,54.40
2019-01-10T05:15:15.882Z,54.40
2019-01-10T05:17:44.532Z,54.50
2019-01-10T05:20:15.274Z,54.40
2019-01-10T05:22:44.414Z,54.40
2019-01-10T05:25:13.071Z,54.50
2019-01-10T05:27:41.479Z,54.50
2019-01-10T05:30:13.141Z,54.50
2019-01-10T05:32:41.566Z,55.10
2019-01-10T05:35:10.036Z,54.50
2019-01-10T05:37:38.893Z,54.40
2019-01-10T05:40:10.543Z,54.40
2019-01-10T05:42:39.017Z,54.40
2019-01-10T05:45:13.133Z,53.80
2019-01-10T05:47:43.163Z,54.30
2019-01-10T05:50:13.879Z,54.30
2019-01-10T05:52:42.369Z,54.40
2019-01-10T05:55:13.117Z,54.30
2019-01-10T05:57:41.917Z,54.30
2019-01-10T06:00:13.651Z,55.00
2019-01-10T06:02:42.062Z,54.50
2019-01-10T06:05:10.717Z,54.70
2019-01-10T06:07:39.517Z,55.20
2019-01-10T06:10:16.797Z,55.50
2019-01-10T06:12:48.052Z,55.60
2019-01-10T06:15:17.013Z,55.30
2019-01-10T06:17:45.438Z,55.20
2019-01-10T06:20:19.862Z,55.10
2019-01-10T06:22:48.528Z,55.80
2019-01-10T06:25:16.941Z,55.00
2019-01-10T06:27:45.588Z,55.00
2019-01-10T06:30:16.712Z,54.90
2019-01-10T06:32:45.288Z,55.00
2019-01-10T06:35:14.016Z,54.90
2019-01-10T06:37:42.425Z,54.90
2019-01-10T06:40:13.477Z,54.90
2019-01-10T06:42:44.982Z,54.80
2019-01-10T06:45:15.339Z,55.00
2019-01-10T06:47:43.820Z,54.80
2019-01-10T06:50:14.653Z,54.70
2019-01-10T06:52:43.231Z,54.70
2019-01-10T06:55:11.876Z,54.60
2019-01-10T06:57:40.474Z,54.60
2019-01-10T07:00:12.629Z,54.60
2019-01-10T07:02:41.034Z,54.60
2019-01-10T07:05:11.161Z,54.50
2019-01-10T07:07:39.834Z,54.50
2019-01-10T07:10:26.137Z,54.60
2019-01-10T07:12:54.626Z,54.60
2019-01-10T07:15:23.043Z,54.60
2019-01-10T07:17:51.514Z,54.60
2019-01-10T07:20:19.992Z,54.60
2019-01-10T07:22:50.449Z,54.60
2019-01-10T07:25:19.785Z,54.60
2019-01-10T07:27:48.258Z,54.60
2019-01-10T07:30:22.545Z,54.50
2019-01-10T07:32:51.278Z,54.50
2019-01-10T07:35:19.689Z,54.50
2019-01-10T07:37:53.166Z,54.50
2019-01-10T07:40:22.446Z,54.50
2019-01-10T07:42:50.854Z,54.50
2019-01-10T07:45:21.513Z,54.40
2019-01-10T07:47:50.601Z,54.40
2019-01-10T07:50:23.203Z,54.40
2019-01-10T07:52:51.610Z,54.40
2019-01-10T07:55:20.509Z,54.50
2019-01-10T07:57:48.921Z,54.60
2019-01-10T08:00:19.179Z,54.40
2019-01-10T08:02:49.120Z,54.40
2019-01-10T08:05:17.540Z,54.40
2019-01-10T08:07:46.072Z,54.40
2019-01-10T08:10:16.298Z,54.40
2019-01-10T08:12:44.946Z,54.40
2019-01-10T08:15:18.994Z,54.40
2019-01-10T08:17:47.478Z,54.40
2019-01-10T08:20:16.260Z,54.30
2019-01-10T08:22:45.167Z,54.20
2019-01-10T08:25:13.643Z,54.30
2019-01-10T08:27:42.194Z,54.30
2019-01-10T08:30:18.777Z,54.40
2019-01-10T08:32:47.261Z,54.30
2019-01-10T08:35:18.031Z,54.40
2019-01-10T08:37:47.405Z,54.20
2019-01-10T08:40:15.937Z,54.30
2019-01-10T08:42:44.345Z,54.30
2019-01-10T08:45:21.428Z,54.30
2019-01-10T08:47:43.118Z,54.80
2019-01-10T08:50:14.634Z,54.60
2019-01-10T08:52:43.109Z,54.60
2019-01-10T08:55:11.685Z,54.60
2019-01-10T08:57:40.096Z,53.40
2019-01-10T09:00:12.171Z,54.00
2019-01-10T09:02:40.761Z,51.00
2019-01-10T09:05:09.428Z,49.90
2019-01-10T09:07:38.838Z,52.60
2019-01-10T09:10:16.205Z,53.20
2019-01-10T09:12:44.840Z,53.40
2019-01-10T09:15:13.483Z,53.40
2019-01-10T09:17:41.893Z,53.50
2019-01-10T09:20:13.244Z,53.50
2019-01-10T09:22:41.665Z,53.60
2019-01-10T09:25:10.085Z,53.50
2019-01-10T09:27:39.409Z,53.60
2019-01-10T09:30:16.520Z,53.60
2019-01-10T09:32:45.363Z,53.70
2019-01-10T09:35:13.944Z,53.80
2019-01-10T09:37:42.374Z,53.80
2019-01-10T09:40:18.794Z,53.80
2019-01-10T09:42:47.360Z,53.80
2019-01-10T09:45:21.755Z,53.90
2019-01-10T09:47:51.208Z,53.80
2019-01-10T09:50:21.364Z,53.80
2019-01-10T09:52:50.202Z,53.90
2019-01-10T09:55:19.114Z,53.90
2019-01-10T09:57:47.588Z,53.90
2019-01-10T10:00:21.729Z,53.90
2019-01-10T10:02:50.694Z,54.00
2019-01-10T10:05:20.152Z,54.00
2019-01-10T10:07:48.557Z,54.00
2019-01-10T10:10:19.853Z,54.10
2019-01-10T10:12:48.286Z,54.10
2019-01-10T10:15:18.234Z,54.10
2019-01-10T10:17:47.199Z,54.10
2019-01-10T10:20:18.326Z,54.20
2019-01-10T10:22:46.885Z,54.20
2019-01-10T10:25:15.739Z,54.10
2019-01-10T10:27:44.141Z,54.10
2019-01-10T10:30:17.721Z,54.20
2019-01-10T10:32:49.260Z,54.10
2019-01-10T10:35:18.019Z,54.20
2019-01-10T10:37:48.874Z,54.20
2019-01-10T10:40:19.180Z,54.20
2019-01-10T10:42:48.443Z,54.20
2019-01-10T10:45:18.655Z,54.20
2019-01-10T10:47:48.101Z,54.10
2019-01-10T10:50:19.588Z,54.10
2019-01-10T10:52:47.989Z,54.20
2019-01-10T10:55:17.792Z,54.10
2019-01-10T10:57:46.248Z,54.10
2019-01-10T11:00:18.310Z,54.80
2019-01-10T11:02:47.533Z,54.20
2019-01-10T11:05:17.962Z,54.20
2019-01-10T11:07:52.279Z,54.30
2019-01-10T11:10:21.240Z,54.30
2019-01-10T11:12:50.103Z,54.30
2019-01-10T11:15:22.737Z,54.30
2019-01-10T11:17:51.398Z,54.20
2019-01-10T11:20:21.650Z,54.30
2019-01-10T11:22:50.757Z,54.30
2019-01-10T11:25:21.604Z,54.30
2019-01-10T11:27:50.088Z,54.30
2019-01-10T11:30:20.629Z,54.20
2019-01-10T11:32:49.321Z,54.20
2019-01-10T11:35:17.790Z,54.20
2019-01-10T11:37:49.513Z,54.20
2019-01-10T11:40:20.066Z,54.10
2019-01-10T11:42:48.912Z,54.20
2019-01-10T11:45:19.768Z,54.20
2019-01-10T11:47:48.519Z,54.20
2019-01-10T11:50:17.374Z,54.90
2019-01-10T11:52:46.143Z,54.30
2019-01-10T11:55:14.991Z,54.30
2019-01-10T11:57:43.912Z,54.30
2019-01-10T12:00:21.112Z,54.20
2019-01-10T12:02:49.868Z,54.10
2019-01-10T12:05:18.377Z,54.10
2019-01-10T12:07:47.581Z,54.10
2019-01-10T12:10:20.052Z,53.90
2019-01-10T12:12:48.631Z,54.10
2019-01-10T12:15:17.630Z,54.00
2019-01-10T12:17:46.138Z,54.10
2019-01-10T12:20:17.067Z,54.10
2019-01-10T12:22:46.321Z,54.10
2019-01-10T12:25:16.584Z,54.10
2019-01-10T12:27:45.629Z,54.10
2019-01-10T12:30:22.757Z,54.10
2019-01-10T12:32:51.177Z,54.20
2019-01-10T12:35:19.840Z,54.10
2019-01-10T12:37:48.922Z,54.00
2019-01-10T12:40:17.336Z,54.00
2019-01-10T12:42:46.100Z,54.60
2019-01-10T12:45:17.214Z,54.00
2019-01-10T12:47:45.703Z,53.90
2019-01-10T12:50:17.425Z,53.80
2019-01-10T12:52:46.490Z,54.40
2019-01-10T12:55:14.914Z,53.90
2019-01-10T12:57:43.334Z,53.80
2019-01-10T13:00:15.408Z,53.80
2019-01-10T13:02:44.049Z,53.80
2019-01-10T13:05:13.008Z,53.70
2019-01-10T13:07:41.879Z,53.70
2019-01-10T13:10:13.206Z,53.60
2019-01-10T13:12:41.879Z,53.60
2019-01-10T13:15:14.471Z,53.60
2019-01-10T13:17:42.908Z,53.60
2019-01-10T13:20:12.159Z,53.50
2019-01-10T13:22:41.345Z,53.50
2019-01-10T13:25:15.042Z,53.60
2019-01-10T13:27:44.256Z,53.90
2019-01-10T13:30:18.198Z,53.60
2019-01-10T13:32:46.689Z,53.60
2019-01-10T13:35:16.139Z,53.60
2019-01-10T13:37:44.557Z,53.50
2019-01-10T13:40:15.744Z,53.50
2019-01-10T13:42:44.667Z,53.60
2019-01-10T13:45:14.812Z,53.60
2019-01-10T13:47:45.235Z,53.60
2019-01-10T13:50:20.146Z,53.50
2019-01-10T13:52:48.562Z,53.50
2019-01-10T13:55:18.719Z,53.50
2019-01-10T13:57:47.744Z,53.40
2019-01-10T14:00:21.341Z,53.50
2019-01-10T14:02:49.906Z,53.50
2019-01-10T14:05:18.829Z,53.40
2019-01-10T14:07:47.314Z,53.50
2019-01-10T14:10:17.569Z,53.40
2019-01-10T14:12:46.441Z,53.50
2019-01-10T14:15:21.827Z,53.40
2019-01-10T14:17:50.292Z,53.40
2019-01-10T14:20:19.079Z,53.40
2019-01-10T14:22:47.549Z,53.50
2019-01-10T14:25:16.311Z,53.50
2019-01-10T14:27:45.357Z,53.40
2019-01-10T14:30:17.018Z,53.40
2019-01-10T14:32:45.490Z,53.40
2019-01-10T14:35:14.841Z,53.40
2019-01-10T14:37:43.255Z,53.40
2019-01-10T14:40:12.604Z,53.40
2019-01-10T14:42:41.325Z,53.40
2019-01-10T14:45:12.950Z,53.40
2019-01-10T14:47:41.353Z,53.40
2019-01-10T14:50:11.697Z,54.10
2019-01-10T14:52:40.119Z,53.40
2019-01-10T14:55:13.899Z,53.40
2019-01-10T14:57:43.053Z,53.50
2019-01-10T15:00:17.848Z,53.40
2019-01-10T15:02:46.257Z,53.40
2019-01-10T15:05:15.657Z,54.00
2019-01-10T15:07:44.069Z,53.30
2019-01-10T15:10:12.741Z,53.30
2019-01-10T15:12:42.107Z,53.30
2019-01-10T15:15:13.462Z,53.40
2019-01-10T15:17:44.153Z,53.40
2019-01-10T15:20:16.067Z,53.40
2019-01-10T15:22:44.486Z,53.40
2019-01-10T15:25:13.335Z,53.40
2019-01-10T15:27:42.131Z,53.40
2019-01-10T15:30:21.909Z,53.40
2019-01-10T15:32:51.173Z,53.40
2019-01-10T15:35:19.669Z,53.30
2019-01-10T15:37:48.082Z,54.00
2019-01-10T15:40:19.785Z,53.30
2019-01-10T15:42:48.205Z,53.30
2019-01-10T15:45:16.852Z,53.30
2019-01-10T15:47:45.753Z,53.20
2019-01-10T15:50:17.026Z,54.00
2019-01-10T15:52:45.504Z,53.40
2019-01-10T15:55:16.434Z,53.30
2019-01-10T15:57:44.857Z,53.40
2019-01-10T16:00:21.904Z,53.40
2019-01-10T16:02:50.773Z,53.30
2019-01-10T16:05:19.181Z,53.40
2019-01-10T16:07:48.042Z,53.40
2019-01-10T16:10:18.296Z,53.40
2019-01-10T16:12:47.046Z,53.50
2019-01-10T16:15:18.209Z,53.40
2019-01-10T16:17:48.012Z,53.40
2019-01-10T16:20:16.498Z,53.40
2019-01-10T16:22:45.759Z,53.50
2019-01-10T16:25:16.406Z,53.40
2019-01-10T16:27:44.885Z,53.40
2019-01-10T16:30:24.757Z,53.40
2019-01-10T16:32:53.240Z,53.30
2019-01-10T16:35:21.667Z,54.00
2019-01-10T16:37:50.627Z,53.40
2019-01-10T16:40:19.584Z,53.30
2019-01-10T16:42:47.993Z,53.40
2019-01-10T16:45:19.760Z,53.40
2019-01-10T16:47:48.167Z,53.40
2019-01-10T16:50:16.702Z,53.40
2019-01-10T16:52:45.500Z,53.30
2019-01-10T16:55:14.249Z,53.40
2019-01-10T16:57:42.664Z,53.40
2019-01-10T17:00:17.843Z,53.40
2019-01-10T17:02:46.258Z,53.40
2019-01-10T17:05:14.673Z,53.40
2019-01-10T17:07:43.259Z,53.40
2019-01-10T17:10:12.110Z,53.40
2019-01-10T17:12:40.521Z,53.40
2019-01-10T17:15:11.471Z,53.30
2019-01-10T17:17:39.883Z,53.30
2019-01-10T17:20:16.029Z,53.30
2019-01-10T17:22:44.510Z,53.30
2019-01-10T17:25:13.086Z,53.30
2019-01-10T17:27:41.853Z,53.20
2019-01-10T17:30:21.787Z,53.20
2019-01-10T17:32:50.347Z,53.90
2019-01-10T17:35:21.496Z,53.20
2019-01-10T17:37:50.005Z,52.30
2019-01-10T17:40:21.476Z,53.00
2019-01-10T17:42:50.300Z,53.10
2019-01-10T17:45:21.591Z,53.20
2019-01-10T17:47:50.091Z,53.40
2019-01-10T17:50:20.821Z,53.50
2019-01-10T17:52:49.308Z,53.60
2019-01-10T17:55:17.778Z,53.80
2019-01-10T17:57:46.215Z,54.20
2019-01-10T18:00:17.422Z,54.30
2019-01-10T18:02:46.849Z,54.50
2019-01-10T18:05:15.422Z,54.80
2019-01-10T18:07:44.839Z,54.90
2019-01-10T18:10:16.973Z,55.20
2019-01-10T18:12:45.391Z,55.40
2019-01-10T18:15:17.155Z,55.20
2019-01-10T18:17:50.284Z,55.20
2019-01-10T18:20:20.474Z,55.20
2019-01-10T18:22:48.910Z,55.30
2019-01-10T18:25:18.504Z,55.30
2019-01-10T18:27:46.929Z,55.40
2019-01-10T18:30:18.449Z,55.70
2019-01-10T18:32:46.987Z,56.00
2019-01-10T18:35:15.477Z,56.50
2019-01-10T18:37:43.977Z,56.70
2019-01-10T18:40:15.049Z,56.80
2019-01-10T18:42:43.484Z,56.80
2019-01-10T18:45:21.317Z,56.90
2019-01-10T18:47:49.719Z,57.50
2019-01-10T18:50:21.762Z,57.10
2019-01-10T18:52:50.280Z,57.10
2019-01-10T18:55:18.846Z,57.30
2019-01-10T18:57:47.264Z,56.90
2019-01-10T19:00:19.275Z,56.90
2019-01-10T19:02:47.761Z,57.00
2019-01-10T19:05:16.244Z,57.10
2019-01-10T19:07:45.540Z,57.20
2019-01-10T19:10:17.094Z,57.30
2019-01-10T19:12:45.501Z,57.40
2019-01-10T19:15:14.553Z,57.60
2019-01-10T19:17:42.973Z,57.60
2019-01-10T19:20:16.574Z,57.70
2019-01-10T19:22:47.534Z,57.80
2019-01-10T19:25:16.020Z,57.70
2019-01-10T19:27:44.534Z,57.70
2019-01-10T19:30:22.155Z,57.80
2019-01-10T19:32:50.801Z,57.80
2019-01-10T19:35:19.286Z,57.90
2019-01-10T19:37:48.564Z,57.90
2019-01-10T19:40:19.422Z,57.90
2019-01-10T19:42:47.838Z,58.00
2019-01-10T19:45:19.169Z,58.00
2019-01-10T19:47:47.586Z,57.90
2019-01-10T19:50:24.290Z,58.70
2019-01-10T19:52:52.801Z,58.00
2019-01-10T19:55:22.241Z,58.10
2019-01-10T19:57:51.558Z,58.10
2019-01-10T20:00:32.001Z,58.10
2019-01-10T20:03:00.872Z,58.20
2019-01-10T20:05:29.278Z,58.40
2019-01-10T20:07:57.712Z,58.50
2019-01-10T20:10:26.189Z,58.30
2019-01-10T20:12:54.683Z,58.40
2019-01-10T20:15:23.172Z,58.40
2019-01-10T20:17:52.269Z,58.50
2019-01-10T20:20:26.944Z,58.50
2019-01-10T20:22:55.358Z,58.60
2019-01-10T20:25:24.500Z,58.70
2019-01-10T20:27:52.988Z,58.60
2019-01-10T20:30:21.411Z,58.70
2019-01-10T20:32:49.923Z,58.70
2019-01-10T20:35:18.422Z,58.80
2019-01-10T20:37:46.842Z,58.80
2019-01-10T20:40:18.033Z,58.80
2019-01-10T20:42:46.612Z,58.90
2019-01-10T20:45:15.177Z,58.90
2019-01-10T20:47:44.205Z,58.90
2019-01-10T20:50:16.669Z,58.90
2019-01-10T20:52:45.153Z,58.90
2019-01-10T20:55:15.262Z,58.90
2019-01-10T20:57:43.672Z,58.90
2019-01-10T21:00:23.317Z,59.00
2019-01-10T21:02:52.170Z,59.00
2019-01-10T21:05:20.591Z,59.50
2019-01-10T21:07:51.101Z,59.00
2019-01-10T21:10:23.379Z,58.90
2019-01-10T21:12:51.806Z,58.50
2019-01-10T21:15:23.224Z,58.30
2019-01-10T21:17:51.631Z,58.20
2019-01-10T21:20:20.145Z,58.00
2019-01-10T21:22:49.433Z,57.90
2019-01-10T21:25:18.183Z,57.80
2019-01-10T21:27:47.736Z,57.70
2019-01-10T21:30:19.812Z,57.60
2019-01-10T21:32:49.674Z,57.50
2019-01-10T21:35:18.446Z,57.40
2019-01-10T21:37:47.517Z,57.30
2019-01-10T21:40:18.168Z,57.20
2019-01-10T21:42:46.717Z,57.20
2019-01-10T21:45:18.000Z,57.10
2019-01-10T21:47:46.581Z,57.00
2019-01-10T21:50:17.661Z,57.00
2019-01-10T21:52:46.656Z,56.90
2019-01-10T21:55:15.268Z,56.90
2019-01-10T21:57:43.748Z,56.90
2019-01-10T22:00:21.256Z,57.20
2019-01-10T22:02:49.676Z,56.70
2019-01-10T22:05:18.083Z,56.60
2019-01-10T22:07:47.632Z,56.50
2019-01-10T22:10:16.193Z,56.50
2019-01-10T22:12:44.607Z,56.40
2019-01-10T22:15:15.559Z,56.40
2019-01-10T22:17:44.107Z,56.30
2019-01-10T22:20:15.157Z,56.20
2019-01-10T22:22:43.865Z,56.20
2019-01-10T22:25:12.330Z,56.10
2019-01-10T22:27:40.747Z,56.10
2019-01-10T22:30:22.389Z,56.00
2019-01-10T22:32:50.950Z,56.00
2019-01-10T22:35:21.096Z,56.00
2019-01-10T22:37:50.650Z,55.90
2019-01-10T22:40:21.007Z,55.80
2019-01-10T22:42:49.490Z,55.80
2019-01-10T22:45:18.444Z,56.40
2019-01-10T22:47:46.995Z,55.70
2019-01-10T22:50:17.850Z,55.60
2019-01-10T22:52:47.006Z,55.60
2019-01-10T22:55:16.855Z,55.50
2019-01-10T22:57:45.363Z,55.50
2019-01-10T23:00:30.799Z,55.40
2019-01-10T23:03:07.574Z,55.40
2019-01-10T23:05:41.168Z,55.30
2019-01-10T23:08:09.584Z,55.30
2019-01-10T23:10:38.014Z,55.30
2019-01-10T23:13:07.646Z,55.20
2019-01-10T23:15:36.298Z,55.10
2019-01-10T23:18:06.338Z,55.10
2019-01-10T23:20:34.830Z,55.10
2019-01-10T23:23:09.127Z,55.10
2019-01-10T23:25:37.678Z,55.00
2019-01-10T23:28:06.418Z,55.00
2019-01-10T23:30:55.599Z,55.00
2019-01-10T23:33:27.045Z,55.00
2019-01-10T23:36:00.696Z,54.90
2019-01-10T23:38:29.268Z,54.80
2019-01-10T23:40:58.416Z,54.90
2019-01-10T23:43:26.822Z,54.80
2019-01-10T23:45:55.245Z,54.70
2019-01-10T23:48:24.252Z,54.70
2019-01-10T23:50:52.727Z,54.70
2019-01-10T23:53:21.483Z,54.60
2019-01-10T23:55:50.621Z,54.60
2019-01-10T23:58:19.109Z,54.60
